Terminal Aerodrome Forecast
Issued by NWS Knoxville/Tri Cities, TN

Home | Current Version | Previous Version | Text Only | Print | Product List | Glossary On
Versions: 1 2 3 4 5 6 7 8 9 10 11 12 13 14 15 16 17 18 19 20
000
FTUS44 KMRX 300525
TAFCHA
TAF
KCHA 300525Z 3006/0106 00000KT P6SM BKN120 OVC200
     FM301200 16004KT P6SM VCSH SCT050 BKN120
     FM301700 17010KT P6SM VCTS SCT050CB BKN100
      TEMPO 3019/3022 3SM SHRA BR BKN040 OVC080
     FM010100 VRB04KT P6SM VCTS SCT050CB BKN150=

USA.gov is the U.S. government's official web portal to all federal, state and local government web resources and services.